sensor_id;sensor_type;location;lat;lon;timestamp;pressure;altitude;pressure_sealevel;temperature;humidity
9077;BME280;4574;51.072;17.174;2023-05-11T00:02:22;100206.03;;;14.75;70.12
9077;BME280;4574;51.072;17.174;2023-05-11T00:04:53;100203.88;;;14.79;70.39
9077;BME280;4574;51.072;17.174;2023-05-11T00:07:21;100201.34;;;14.77;70.05
9077;BME280;4574;51.072;17.174;2023-05-11T00:09:50;100205.84;;;14.85;69.44
9077;BME280;4574;51.072;17.174;2023-05-11T00:12:18;100202.50;;;14.83;69.74
9077;BME280;4574;51.072;17.174;2023-05-11T00:14:48;100208.16;;;14.88;69.44
9077;BME280;4574;51.072;17.174;2023-05-11T00:17:17;100202.13;;;14.94;69.35
9077;BME280;4574;51.072;17.174;2023-05-11T00:19:46;100208.56;;;14.99;69.11
9077;BME280;4574;51.072;17.174;2023-05-11T00:22:15;100206.41;;;15.03;69.07
9077;BME280;4574;51.072;17.174;2023-05-11T00:24:43;100208.56;;;14.99;69.52
9077;BME280;4574;51.072;17.174;2023-05-11T00:27:12;100193.13;;;14.95;69.71
9077;BME280;4574;51.072;17.174;2023-05-11T00:29:41;100204.91;;;15.00;69.55
9077;BME280;4574;51.072;17.174;2023-05-11T00:32:11;100209.22;;;15.01;70.18
9077;BME280;4574;51.072;17.174;2023-05-11T00:34:39;100212.09;;;15.00;70.05
9077;BME280;4574;51.072;17.174;2023-05-11T00:37:08;100209.28;;;14.93;70.35
9077;BME280;4574;51.072;17.174;2023-05-11T00:39:36;100209.94;;;14.95;70.78
9077;BME280;4574;51.072;17.174;2023-05-11T00:42:06;100208.63;;;14.91;70.64
9077;BME280;4574;51.072;17.174;2023-05-11T00:44:35;100202.28;;;14.92;70.88
9077;BME280;4574;51.072;17.174;2023-05-11T00:47:03;100204.28;;;14.90;70.89
9077;BME280;4574;51.072;17.174;2023-05-11T00:49:33;100212.13;;;14.92;71.21
9077;BME280;4574;51.072;17.174;2023-05-11T00:52:02;100189.22;;;14.75;71.52
9077;BME280;4574;51.072;17.174;2023-05-11T00:54:31;100221.97;;;14.83;71.62
9077;BME280;4574;51.072;17.174;2023-05-11T00:57:00;100214.69;;;14.77;71.52
9077;BME280;4574;51.072;17.174;2023-05-11T00:59:29;100195.41;;;14.68;71.63
9077;BME280;4574;51.072;17.174;2023-05-11T01:01:57;100205.72;;;14.71;71.68
9077;BME280;4574;51.072;17.174;2023-05-11T01:04:26;100209.25;;;14.63;72.15
9077;BME280;4574;51.072;17.174;2023-05-11T01:07:02;100206.75;;;14.62;71.91
9077;BME280;4574;51.072;17.174;2023-05-11T01:09:43;100210.44;;;14.61;72.60
9077;BME280;4574;51.072;17.174;2023-05-11T01:12:19;100211.63;;;14.58;72.02
9077;BME280;4574;51.072;17.174;2023-05-11T01:15:00;100204.16;;;14.46;72.76
9077;BME280;4574;51.072;17.174;2023-05-11T01:17:37;100215.97;;;14.51;72.41
9077;BME280;4574;51.072;17.174;2023-05-11T01:20:15;100194.16;;;14.48;72.27
9077;BME280;4574;51.072;17.174;2023-05-11T01:23:23;100209.13;;;14.49;74.00
9077;BME280;4574;51.072;17.174;2023-05-11T01:26:09;100217.97;;;14.49;72.94
9077;BME280;4574;51.072;17.174;2023-05-11T01:28:57;100215.66;;;14.46;74.03
9077;BME280;4574;51.072;17.174;2023-05-11T01:31:32;100215.19;;;14.35;73.87
9077;BME280;4574;51.072;17.174;2023-05-11T01:34:03;100209.84;;;14.35;73.59
9077;BME280;4574;51.072;17.174;2023-05-11T01:36:35;100214.50;;;14.33;73.54
9077;BME280;4574;51.072;17.174;2023-05-11T01:39:08;100218.84;;;14.34;73.40
9077;BME280;4574;51.072;17.174;2023-05-11T01:41:39;100214.66;;;14.31;73.41
9077;BME280;4574;51.072;17.174;2023-05-11T01:44:09;100206.88;;;14.30;73.99
9077;BME280;4574;51.072;17.174;2023-05-11T01:46:40;100214.50;;;14.33;74.40
9077;BME280;4574;51.072;17.174;2023-05-11T01:49:09;100213.66;;;14.32;74.44
9077;BME280;4574;51.072;17.174;2023-05-11T01:51:41;100216.84;;;14.28;74.10
9077;BME280;4574;51.072;17.174;2023-05-11T01:54:11;100214.22;;;14.20;74.17
9077;BME280;4574;51.072;17.174;2023-05-11T01:56:42;100225.19;;;14.09;75.93
9077;BME280;4574;51.072;17.174;2023-05-11T01:59:11;100231.84;;;14.05;75.33
9077;BME280;4574;51.072;17.174;2023-05-11T02:01:43;100223.84;;;14.05;74.84
9077;BME280;4574;51.072;17.174;2023-05-11T02:04:12;100230.19;;;14.04;75.33
9077;BME280;4574;51.072;17.174;2023-05-11T02:06:42;100232.19;;;14.02;74.72
9077;BME280;4574;51.072;17.174;2023-05-11T02:09:12;100225.84;;;14.03;74.59
9077;BME280;4574;51.072;17.174;2023-05-11T02:11:44;100226.00;;;14.01;74.92
9077;BME280;4574;51.072;17.174;2023-05-11T02:14:14;100222.88;;;13.98;75.21
9077;BME280;4574;51.072;17.174;2023-05-11T02:16:47;100234.53;;;13.89;75.46
9077;BME280;4574;51.072;17.174;2023-05-11T02:19:17;100227.69;;;13.94;75.11
9077;BME280;4574;51.072;17.174;2023-05-11T02:21:46;100236.19;;;13.98;75.07
9077;BME280;4574;51.072;17.174;2023-05-11T02:24:15;100238.00;;;13.97;74.89
9077;BME280;4574;51.072;17.174;2023-05-11T02:26:46;100237.50;;;13.94;75.40
9077;BME280;4574;51.072;17.174;2023-05-11T02:29:15;100230.53;;;13.93;75.53
9077;BME280;4574;51.072;17.174;2023-05-11T02:31:48;100232.84;;;13.96;75.59
9077;BME280;4574;51.072;17.174;2023-05-11T02:34:20;100225.88;;;13.95;75.75
9077;BME280;4574;51.072;17.174;2023-05-11T02:36:53;100235.19;;;13.99;75.88
9077;BME280;4574;51.072;17.174;2023-05-11T02:39:29;100237.84;;;13.99;75.72
9077;BME280;4574;51.072;17.174;2023-05-11T02:42:05;100228.34;;;13.96;76.07
9077;BME280;4574;51.072;17.174;2023-05-11T02:44:38;100233.53;;;13.98;76.66
9077;BME280;4574;51.072;17.174;2023-05-11T02:47:11;100233.66;;;13.96;76.14
9077;BME280;4574;51.072;17.174;2023-05-11T02:49:42;100235.84;;;13.93;76.40
9077;BME280;4574;51.072;17.174;2023-05-11T02:52:13;100224.88;;;13.88;76.45
9077;BME280;4574;51.072;17.174;2023-05-11T02:54:43;100237.84;;;13.75;77.24
9077;BME280;4574;51.072;17.174;2023-05-11T02:57:12;100226.88;;;13.70;77.47
9077;BME280;4574;51.072;17.174;2023-05-11T02:59:40;100234.69;;;13.71;77.62
9077;BME280;4574;51.072;17.174;2023-05-11T03:02:11;100226.22;;;13.68;77.58
9077;BME280;4574;51.072;17.174;2023-05-11T03:04:39;100228.53;;;13.63;77.92
9077;BME280;4574;51.072;17.174;2023-05-11T03:07:08;100221.03;;;13.58;77.76
9077;BME280;4574;51.072;17.174;2023-05-11T03:09:37;100223.69;;;13.58;77.41
9077;BME280;4574;51.072;17.174;2023-05-11T03:12:06;100217.53;;;13.50;78.33
9077;BME280;4574;51.072;17.174;2023-05-11T03:14:35;100238.81;;;13.50;78.88
9077;BME280;4574;51.072;17.174;2023-05-11T03:17:05;100224.84;;;13.40;79.11
9077;BME280;4574;51.072;17.174;2023-05-11T03:19:37;100231.16;;;13.39;78.63
9077;BME280;4574;51.072;17.174;2023-05-11T03:22:09;100234.00;;;13.38;78.97
9077;BME280;4574;51.072;17.174;2023-05-11T03:24:38;100235.13;;;13.35;79.07
9077;BME280;4574;51.072;17.174;2023-05-11T03:27:07;100230.00;;;13.34;79.05
9077;BME280;4574;51.072;17.174;2023-05-11T03:29:38;100235.13;;;13.35;78.60
9077;BME280;4574;51.072;17.174;2023-05-11T03:32:09;100243.97;;;13.36;79.27
9077;BME280;4574;51.072;17.174;2023-05-11T03:34:39;100236.97;;;13.27;79.61
9077;BME280;4574;51.072;17.174;2023-05-11T03:37:09;100238.78;;;13.26;79.94
9077;BME280;4574;51.072;17.174;2023-05-11T03:39:40;100240.09;;;13.22;79.91
9077;BME280;4574;51.072;17.174;2023-05-11T03:42:12;100247.59;;;13.27;79.53
9077;BME280;4574;51.072;17.174;2023-05-11T03:44:43;100239.94;;;13.24;79.17
9077;BME280;4574;51.072;17.174;2023-05-11T03:47:14;100245.94;;;13.26;79.13
9077;BME280;4574;51.072;17.174;2023-05-11T03:49:46;100230.63;;;13.20;79.91
9077;BME280;4574;51.072;17.174;2023-05-11T03:52:16;100238.44;;;13.21;80.21
9077;BME280;4574;51.072;17.174;2023-05-11T03:54:45;100240.09;;;13.22;79.77
9077;BME280;4574;51.072;17.174;2023-05-11T03:57:14;100238.44;;;13.21;80.77
9077;BME280;4574;51.072;17.174;2023-05-11T03:59:43;100233.75;;;13.15;79.96
9077;BME280;4574;51.072;17.174;2023-05-11T04:02:11;100246.72;;;13.18;80.02
9077;BME280;4574;51.072;17.174;2023-05-11T04:04:40;100241.72;;;13.07;81.32
9077;BME280;4574;51.072;17.174;2023-05-11T04:07:10;100241.72;;;13.07;80.70
9077;BME280;4574;51.072;17.174;2023-05-11T04:09:39;100237.41;;;13.06;80.04
9077;BME280;4574;51.072;17.174;2023-05-11T04:12:07;100241.22;;;13.04;80.85
9077;BME280;4574;51.072;17.174;2023-05-11T04:14:36;100239.72;;;13.01;80.78
9077;BME280;4574;51.072;17.174;2023-05-11T04:17:05;100231.38;;;12.96;80.86
9077;BME280;4574;51.072;17.174;2023-05-11T04:19:33;100243.34;;;12.92;81.55
9077;BME280;4574;51.072;17.174;2023-05-11T04:22:02;100236.66;;;12.88;81.31
9077;BME280;4574;51.072;17.174;2023-05-11T04:24:32;100250.00;;;12.96;80.76
9077;BME280;4574;51.072;17.174;2023-05-11T04:27:00;100236.81;;;12.87;81.84
9077;BME280;4574;51.072;17.174;2023-05-11T04:29:30;100248.75;;;12.83;82.80
9077;BME280;4574;51.072;17.174;2023-05-11T04:31:58;100244.16;;;12.59;84.21
9077;BME280;4574;51.072;17.174;2023-05-11T04:34:27;100245.88;;;12.68;83.02
9077;BME280;4574;51.072;17.174;2023-05-11T04:36:55;100248.16;;;12.63;84.44
9077;BME280;4574;51.072;17.174;2023-05-11T04:39:24;100255.13;;;12.64;84.23
9077;BME280;4574;51.072;17.174;2023-05-11T04:41:54;100255.97;;;12.65;84.10
9077;BME280;4574;51.072;17.174;2023-05-11T04:44:22;100251.66;;;12.72;83.62
9077;BME280;4574;51.072;17.174;2023-05-11T04:46:53;100255.31;;;12.71;82.83
9077;BME280;4574;51.072;17.174;2023-05-11T04:49:21;100249.91;;;12.80;82.95
9077;BME280;4574;51.072;17.174;2023-05-11T04:51:50;100252.91;;;12.85;83.01
9077;BME280;4574;51.072;17.174;2023-05-11T04:54:19;100265.84;;;12.80;85.82
9077;BME280;4574;51.072;17.174;2023-05-11T04:56:47;100263.53;;;12.85;84.70
9077;BME280;4574;51.072;17.174;2023-05-11T04:59:17;100258.56;;;12.90;83.69
9077;BME280;4574;51.072;17.174;2023-05-11T05:01:46;100260.13;;;12.93;83.39
9077;BME280;4574;51.072;17.174;2023-05-11T05:04:14;100269.91;;;12.92;84.15
9077;BME280;4574;51.072;17.174;2023-05-11T05:06:43;100257.97;;;12.96;84.34
9077;BME280;4574;51.072;17.174;2023-05-11T05:09:11;100264.72;;;12.91;85.94
9077;BME280;4574;51.072;17.174;2023-05-11T05:11:40;100266.00;;;12.79;88.42
9077;BME280;4574;51.072;17.174;2023-05-11T05:14:08;100261.88;;;12.84;86.42
9077;BME280;4574;51.072;17.174;2023-05-11T05:16:38;100258.28;;;12.93;85.73
9077;BME280;4574;51.072;17.174;2023-05-11T05:19:07;100264.78;;;12.99;85.23
9077;BME280;4574;51.072;17.174;2023-05-11T05:21:38;100263.63;;;13.01;85.82
9077;BME280;4574;51.072;17.174;2023-05-11T05:24:07;100268.28;;;12.99;89.13
9077;BME280;4574;51.072;17.174;2023-05-11T05:26:38;100255.31;;;12.96;86.53
9077;BME280;4574;51.072;17.174;2023-05-11T05:29:06;100265.63;;;12.99;88.14
9077;BME280;4574;51.072;17.174;2023-05-11T05:31:35;100267.59;;;12.97;87.90
9077;BME280;4574;51.072;17.174;2023-05-11T05:34:05;100273.13;;;13.04;88.29
9077;BME280;4574;51.072;17.174;2023-05-11T05:36:33;100267.63;;;13.05;89.91
9077;BME280;4574;51.072;17.174;2023-05-11T05:39:02;100272.47;;;13.10;88.06
9077;BME280;4574;51.072;17.174;2023-05-11T05:41:36;100266.97;;;13.11;87.45
9077;BME280;4574;51.072;17.174;2023-05-11T05:44:05;100274.16;;;13.19;87.56
9077;BME280;4574;51.072;17.174;2023-05-11T05:46:33;100278.16;;;13.23;86.94
9077;BME280;4574;51.072;17.174;2023-05-11T05:49:02;100276.66;;;13.28;86.31
9077;BME280;4574;51.072;17.174;2023-05-11T05:51:32;100281.31;;;13.26;87.64
9077;BME280;4574;51.072;17.174;2023-05-11T05:54:01;100273.34;;;13.26;87.26
9077;BME280;4574;51.072;17.174;2023-05-11T05:56:30;100270.00;;;13.24;86.86
9077;BME280;4574;51.072;17.174;2023-05-11T05:59:01;100289.31;;;13.34;87.51
9077;BME280;4574;51.072;17.174;2023-05-11T06:01:29;100282.19;;;13.35;86.52
9077;BME280;4574;51.072;17.174;2023-05-11T06:03:57;100287.84;;;13.39;87.78
9077;BME280;4574;51.072;17.174;2023-05-11T06:06:27;100282.53;;;13.39;86.29
9077;BME280;4574;51.072;17.174;2023-05-11T06:08:57;100286.50;;;13.43;85.51
9077;BME280;4574;51.072;17.174;2023-05-11T06:11:25;100285.66;;;13.43;85.41
9077;BME280;4574;51.072;17.174;2023-05-11T06:13:54;100286.00;;;13.48;85.77
9077;BME280;4574;51.072;17.174;2023-05-11T06:16:22;100276.72;;;13.60;86.30
9077;BME280;4574;51.072;17.174;2023-05-11T06:18:51;100279.25;;;13.77;86.88
9077;BME280;4574;51.072;17.174;2023-05-11T06:21:20;100287.09;;;13.95;87.01
9077;BME280;4574;51.072;17.174;2023-05-11T06:23:48;100286.56;;;13.99;85.68
9077;BME280;4574;51.072;17.174;2023-05-11T06:26:18;100282.44;;;13.97;85.06
9077;BME280;4574;51.072;17.174;2023-05-11T06:28:47;100275.44;;;14.04;85.55
9077;BME280;4574;51.072;17.174;2023-05-11T06:31:15;100286.75;;;14.30;85.59
9077;BME280;4574;51.072;17.174;2023-05-11T06:33:44;100291.91;;;14.47;84.90
9077;BME280;4574;51.072;17.174;2023-05-11T06:36:13;100291.88;;;14.55;84.75
9077;BME280;4574;51.072;17.174;2023-05-11T06:38:41;100293.34;;;14.66;84.25
9077;BME280;4574;51.072;17.174;2023-05-11T06:41:10;100288.50;;;14.77;83.50
9077;BME280;4574;51.072;17.174;2023-05-11T06:43:40;100295.50;;;15.08;85.05
9077;BME280;4574;51.072;17.174;2023-05-11T06:46:09;100291.16;;;15.15;83.78
9077;BME280;4574;51.072;17.174;2023-05-11T06:48:42;100290.09;;;15.24;82.49
9077;BME280;4574;51.072;17.174;2023-05-11T06:51:11;100274.28;;;15.23;82.03
9077;BME280;4574;51.072;17.174;2023-05-11T06:53:39;100291.72;;;15.41;82.25
9077;BME280;4574;51.072;17.174;2023-05-11T06:56:08;100284.13;;;15.53;80.85
9077;BME280;4574;51.072;17.174;2023-05-11T06:58:37;100282.91;;;15.63;81.30
9077;BME280;4574;51.072;17.174;2023-05-11T07:01:06;100283.81;;;15.78;80.82
9077;BME280;4574;51.072;17.174;2023-05-11T07:03:35;100282.47;;;15.97;80.00
9077;BME280;4574;51.072;17.174;2023-05-11T07:06:04;100286.50;;;16.15;80.37
9077;BME280;4574;51.072;17.174;2023-05-11T07:08:33;100284.50;;;16.17;78.81
9077;BME280;4574;51.072;17.174;2023-05-11T07:11:01;100280.09;;;16.24;78.79
9077;BME280;4574;51.072;17.174;2023-05-11T07:13:30;100290.84;;;16.38;78.71
9077;BME280;4574;51.072;17.174;2023-05-11T07:15:59;100272.41;;;16.43;79.70
9077;BME280;4574;51.072;17.174;2023-05-11T07:18:29;100277.84;;;16.50;78.76
9077;BME280;4574;51.072;17.174;2023-05-11T07:20:57;100278.50;;;16.52;78.69
9077;BME280;4574;51.072;17.174;2023-05-11T07:23:26;100287.28;;;16.60;77.80
9077;BME280;4574;51.072;17.174;2023-05-11T07:25:54;100282.38;;;16.64;77.98
9077;BME280;4574;51.072;17.174;2023-05-11T07:28:24;100280.63;;;16.71;77.99
9077;BME280;4574;51.072;17.174;2023-05-11T07:30:52;100279.25;;;16.75;77.59
9077;BME280;4574;51.072;17.174;2023-05-11T07:33:21;100283.03;;;16.80;76.74
9077;BME280;4574;51.072;17.174;2023-05-11T07:35:51;100282.66;;;16.83;77.06
9077;BME280;4574;51.072;17.174;2023-05-11T07:38:20;100275.47;;;16.84;77.49
9077;BME280;4574;51.072;17.174;2023-05-11T07:40:48;100288.72;;;17.06;77.20
9077;BME280;4574;51.072;17.174;2023-05-11T07:43:17;100285.13;;;17.14;76.43
9077;BME280;4574;51.072;17.174;2023-05-11T07:45:45;100282.34;;;17.22;77.04
9077;BME280;4574;51.072;17.174;2023-05-11T07:48:14;100282.16;;;17.38;76.16
9077;BME280;4574;51.072;17.174;2023-05-11T07:50:44;100287.66;;;17.51;76.81
9077;BME280;4574;51.072;17.174;2023-05-11T07:53:15;100292.31;;;17.63;76.83
9077;BME280;4574;51.072;17.174;2023-05-11T07:55:43;100293.22;;;17.70;76.03
9077;BME280;4574;51.072;17.174;2023-05-11T07:58:12;100297.25;;;17.80;75.92
9077;BME280;4574;51.072;17.174;2023-05-11T08:00:41;100282.59;;;17.97;76.57
9077;BME280;4574;51.072;17.174;2023-05-11T08:03:10;100290.22;;;18.21;76.48
9077;BME280;4574;51.072;17.174;2023-05-11T08:05:39;100298.78;;;18.31;73.59
9077;BME280;4574;51.072;17.174;2023-05-11T08:08:07;100293.91;;;18.41;74.34
9077;BME280;4574;51.072;17.174;2023-05-11T08:10:37;100290.94;;;18.57;73.47
9077;BME280;4574;51.072;17.174;2023-05-11T08:13:06;100291.56;;;18.59;72.02
9077;BME280;4574;51.072;17.174;2023-05-11T08:15:34;100292.34;;;18.53;72.19
9077;BME280;4574;51.072;17.174;2023-05-11T08:18:04;100291.56;;;18.59;71.69
9077;BME280;4574;51.072;17.174;2023-05-11T08:20:32;100295.38;;;18.71;71.82
9077;BME280;4574;51.072;17.174;2023-05-11T08:23:01;100297.03;;;18.72;70.14
9077;BME280;4574;51.072;17.174;2023-05-11T08:25:29;100283.72;;;18.85;71.58
9077;BME280;4574;51.072;17.174;2023-05-11T08:27:59;100298.22;;;18.97;69.67
9077;BME280;4574;51.072;17.174;2023-05-11T08:30:28;100290.19;;;18.97;70.29
9077;BME280;4574;51.072;17.174;2023-05-11T08:32:57;100289.63;;;19.08;70.63
9077;BME280;4574;51.072;17.174;2023-05-11T08:35:26;100300.56;;;19.13;69.58
9077;BME280;4574;51.072;17.174;2023-05-11T08:37:54;100292.47;;;19.06;68.66
9077;BME280;4574;51.072;17.174;2023-05-11T08:40:25;100300.22;;;19.16;68.65
9077;BME280;4574;51.072;17.174;2023-05-11T08:42:55;100298.59;;;19.28;67.46
9077;BME280;4574;51.072;17.174;2023-05-11T08:45:26;100296.78;;;19.35;67.83
9077;BME280;4574;51.072;17.174;2023-05-11T08:47:54;100299.69;;;19.40;66.99
9077;BME280;4574;51.072;17.174;2023-05-11T08:50:23;100286.94;;;19.55;68.50
9077;BME280;4574;51.072;17.174;2023-05-11T08:52:51;100283.44;;;19.61;67.68
9077;BME280;4574;51.072;17.174;2023-05-11T08:55:21;100297.13;;;19.72;66.62
9077;BME280;4574;51.072;17.174;2023-05-11T08:57:56;100294.84;;;19.69;66.36
9077;BME280;4574;51.072;17.174;2023-05-11T09:00:30;100285.72;;;19.57;64.88
9077;BME280;4574;51.072;17.174;2023-05-11T09:02:59;100289.22;;;19.58;65.41
9077;BME280;4574;51.072;17.174;2023-05-11T09:05:29;100297.09;;;19.66;65.35
9077;BME280;4574;51.072;17.174;2023-05-11T09:07:59;100289.66;;;19.68;65.92
9077;BME280;4574;51.072;17.174;2023-05-11T09:10:30;100289.47;;;19.76;65.90
9077;BME280;4574;51.072;17.174;2023-05-11T09:12:58;100284.72;;;19.91;63.64
9077;BME280;4574;51.072;17.174;2023-05-11T09:15:28;100292.44;;;20.00;62.50
9077;BME280;4574;51.072;17.174;2023-05-11T09:18:03;100286.88;;;20.08;61.62
9077;BME280;4574;51.072;17.174;2023-05-11T09:20:33;100286.44;;;20.11;62.26
9077;BME280;4574;51.072;17.174;2023-05-11T09:23:01;100290.56;;;20.27;63.19
9077;BME280;4574;51.072;17.174;2023-05-11T09:25:31;100288.09;;;20.38;61.87
9077;BME280;4574;51.072;17.174;2023-05-11T09:28:01;100286.22;;;20.58;63.34
9077;BME280;4574;51.072;17.174;2023-05-11T09:30:32;100282.72;;;20.51;63.14
9077;BME280;4574;51.072;17.174;2023-05-11T09:33:01;100288.88;;;20.71;63.57
9077;BME280;4574;51.072;17.174;2023-05-11T09:35:31;100280.19;;;20.88;63.48
9077;BME280;4574;51.072;17.174;2023-05-11T09:38:03;100275.19;;;20.92;58.98
9077;BME280;4574;51.072;17.174;2023-05-11T09:40:34;100276.00;;;20.99;58.92
9077;BME280;4574;51.072;17.174;2023-05-11T09:43:15;100274.72;;;21.14;58.27
9077;BME280;4574;51.072;17.174;2023-05-11T09:45:46;100269.91;;;21.29;56.75
9077;BME280;4574;51.072;17.174;2023-05-11T09:48:26;100277.13;;;21.35;57.32
9077;BME280;4574;51.072;17.174;2023-05-11T09:51:01;100269.13;;;21.16;54.39
9077;BME280;4574;51.072;17.174;2023-05-11T09:53:37;100276.84;;;20.99;52.08
9077;BME280;4574;51.072;17.174;2023-05-11T09:56:07;100281.16;;;21.13;55.22
9077;BME280;4574;51.072;17.174;2023-05-11T09:58:46;100275.16;;;21.11;54.48
9077;BME280;4574;51.072;17.174;2023-05-11T10:01:18;100267.88;;;21.18;55.14
9077;BME280;4574;51.072;17.174;2023-05-11T10:03:50;100272.00;;;21.21;52.42
9077;BME280;4574;51.072;17.174;2023-05-11T10:06:46;100271.00;;;21.15;50.40
9077;BME280;4574;51.072;17.174;2023-05-11T10:09:17;100274.50;;;21.22;50.41
9077;BME280;4574;51.072;17.174;2023-05-11T10:11:46;100258.09;;;21.30;51.92
9077;BME280;4574;51.072;17.174;2023-05-11T10:14:15;100270.50;;;21.31;50.26
9077;BME280;4574;51.072;17.174;2023-05-11T10:16:47;100263.84;;;21.40;51.59
9077;BME280;4574;51.072;17.174;2023-05-11T10:19:16;100255.69;;;21.53;50.75
9077;BME280;4574;51.072;17.174;2023-05-11T10:21:45;100260.41;;;21.71;50.52
9077;BME280;4574;51.072;17.174;2023-05-11T10:24:15;100262.31;;;21.88;50.91
9077;BME280;4574;51.072;17.174;2023-05-11T10:26:46;100241.66;;;22.06;49.63
9077;BME280;4574;51.072;17.174;2023-05-11T10:29:18;100246.84;;;22.32;49.48
9077;BME280;4574;51.072;17.174;2023-05-11T10:31:54;100257.34;;;22.47;46.99
9077;BME280;4574;51.072;17.174;2023-05-11T10:34:24;100252.78;;;22.65;46.60
9077;BME280;4574;51.072;17.174;2023-05-11T10:36:53;100255.16;;;22.55;42.50
9077;BME280;4574;51.072;17.174;2023-05-11T10:39:23;100241.38;;;22.63;44.60
9077;BME280;4574;51.072;17.174;2023-05-11T10:42:01;100232.22;;;22.64;44.01
9077;BME280;4574;51.072;17.174;2023-05-11T10:45:02;100248.06;;;22.97;42.05
9077;BME280;4574;51.072;17.174;2023-05-11T10:50:46;100247.03;;;23.15;42.77
9077;BME280;4574;51.072;17.174;2023-05-11T10:53:34;100249.41;;;22.88;44.83
9077;BME280;4574;51.072;17.174;2023-05-11T10:56:23;100246.84;;;22.57;45.03
9077;BME280;4574;51.072;17.174;2023-05-11T10:59:08;100247.31;;;22.72;44.48
9077;BME280;4574;51.072;17.174;2023-05-11T11:01:41;100235.16;;;22.45;45.00
9077;BME280;4574;51.072;17.174;2023-05-11T11:04:12;100224.63;;;22.37;46.07
9077;BME280;4574;51.072;17.174;2023-05-11T11:06:42;100229.28;;;22.23;44.05
9077;BME280;4574;51.072;17.174;2023-05-11T11:09:12;100233.09;;;22.40;44.92
9077;BME280;4574;51.072;17.174;2023-05-11T11:11:43;100229.75;;;22.63;45.60
9077;BME280;4574;51.072;17.174;2023-05-11T11:14:14;100232.63;;;22.68;45.68
9077;BME280;4574;51.072;17.174;2023-05-11T11:17:24;100238.16;;;22.55;45.06
9077;BME280;4574;51.072;17.174;2023-05-11T11:19:55;100230.13;;;22.24;44.97
9077;BME280;4574;51.072;17.174;2023-05-11T11:22:43;100239.25;;;22.23;45.04
9077;BME280;4574;51.072;17.174;2023-05-11T11:25:14;100240.31;;;22.46;45.45
9077;BME280;4574;51.072;17.174;2023-05-11T11:27:57;100242.13;;;22.70;44.42
9077;BME280;4574;51.072;17.174;2023-05-11T11:30:27;100239.81;;;22.56;44.18
9077;BME280;4574;51.072;17.174;2023-05-11T11:33:30;100229.38;;;22.77;45.55
9077;BME280;4574;51.072;17.174;2023-05-11T11:36:01;100235.16;;;22.81;44.81
9077;BME280;4574;51.072;17.174;2023-05-11T11:38:29;100233.88;;;22.65;44.85
9077;BME280;4574;51.072;17.174;2023-05-11T11:41:00;100227.59;;;22.71;45.18
9077;BME280;4574;51.072;17.174;2023-05-11T11:43:42;100232.31;;;22.76;43.21
9077;BME280;4574;51.072;17.174;2023-05-11T11:46:25;100236.81;;;22.82;44.52
9077;BME280;4574;51.072;17.174;2023-05-11T11:49:07;100235.31;;;22.86;43.43
9077;BME280;4574;51.072;17.174;2023-05-11T11:51:39;100232.63;;;22.86;42.99
9077;BME280;4574;51.072;17.174;2023-05-11T11:54:07;100228.63;;;22.88;42.82
9077;BME280;4574;51.072;17.174;2023-05-11T11:56:43;100226.75;;;23.07;43.24
9077;BME280;4574;51.072;17.174;2023-05-11T11:59:13;100226.16;;;22.87;43.71
9077;BME280;4574;51.072;17.174;2023-05-11T12:01:43;100222.28;;;22.65;43.74
9077;BME280;4574;51.072;17.174;2023-05-11T12:04:38;100225.88;;;22.59;42.68
9077;BME280;4574;51.072;17.174;2023-05-11T12:07:09;100232.97;;;22.29;42.26
9077;BME280;4574;51.072;17.174;2023-05-11T12:09:39;100228.03;;;22.26;41.89
9077;BME280;4574;51.072;17.174;2023-05-11T12:12:08;100231.34;;;22.28;43.05
9077;BME280;4574;51.072;17.174;2023-05-11T12:14:39;100232.50;;;22.38;42.65
9077;BME280;4574;51.072;17.174;2023-05-11T12:17:22;100226.63;;;22.66;42.46
9077;BME280;4574;51.072;17.174;2023-05-11T12:19:52;100219.03;;;22.92;44.34
9077;BME280;4574;51.072;17.174;2023-05-11T12:22:25;100219.09;;;23.04;46.45
9077;BME280;4574;51.072;17.174;2023-05-11T12:24:56;100220.91;;;22.92;46.23
9077;BME280;4574;51.072;17.174;2023-05-11T12:27:26;100217.53;;;22.78;46.85
9077;BME280;4574;51.072;17.174;2023-05-11T12:29:54;100210.31;;;22.54;47.34
9077;BME280;4574;51.072;17.174;2023-05-11T12:32:25;100205.31;;;22.58;47.69
9077;BME280;4574;51.072;17.174;2023-05-11T12:34:59;100221.66;;;22.45;48.04
9077;BME280;4574;51.072;17.174;2023-05-11T12:37:30;100219.44;;;22.11;47.21
9077;BME280;4574;51.072;17.174;2023-05-11T12:39:59;100207.31;;;21.71;48.00
9077;BME280;4574;51.072;17.174;2023-05-11T12:42:29;100206.44;;;21.77;48.60
9077;BME280;4574;51.072;17.174;2023-05-11T12:45:01;100204.94;;;21.81;48.58
9077;BME280;4574;51.072;17.174;2023-05-11T12:47:30;100205.13;;;21.86;48.49
9077;BME280;4574;51.072;17.174;2023-05-11T12:49:59;100203.63;;;21.66;48.21
9077;BME280;4574;51.072;17.174;2023-05-11T12:52:27;100195.75;;;21.64;49.13
9077;BME280;4574;51.072;17.174;2023-05-11T12:54:57;100193.63;;;21.73;48.95
9077;BME280;4574;51.072;17.174;2023-05-11T12:57:28;100202.41;;;21.86;49.62
9077;BME280;4574;51.072;17.174;2023-05-11T13:00:08;100194.44;;;21.73;48.97
9077;BME280;4574;51.072;17.174;2023-05-11T13:02:46;100201.59;;;21.85;49.41
9077;BME280;4574;51.072;17.174;2023-05-11T13:05:17;100198.06;;;21.85;49.02
9077;BME280;4574;51.072;17.174;2023-05-11T13:07:46;100193.56;;;21.79;47.73
9077;BME280;4574;51.072;17.174;2023-05-11T13:10:22;100190.59;;;21.87;48.04
9077;BME280;4574;51.072;17.174;2023-05-11T13:12:51;100191.00;;;21.90;46.83
9077;BME280;4574;51.072;17.174;2023-05-11T13:15:21;100192.84;;;22.14;47.69
9077;BME280;4574;51.072;17.174;2023-05-11T13:17:55;100179.97;;;22.41;45.51
9077;BME280;4574;51.072;17.174;2023-05-11T13:20:26;100186.03;;;22.54;46.42
9077;BME280;4574;51.072;17.174;2023-05-11T13:23:03;100187.69;;;22.55;45.90
9077;BME280;4574;51.072;17.174;2023-05-11T13:25:34;100181.19;;;22.63;46.54